Keetmanshoop, Namibia
Current Conditions -  °F | °C
As of 3:00 PM on Wednesday 22 Oct 2014 (Local Time) from FAUP Reporting Station
Clear Clear  
Wind Chill: 99°   Ceiling: Unl
Heat Index: 99°   Visibility: 6mi
Dew Point: 23°   Wind: 9mph
Humidity: 7%   Direction: 310°NW
Pressure: 29.91"   Gusts: NA
Location:  26.58°S, 18.13°E
Report Text: FAUP 221400Z 31008KT CAVOK 37/M05 Q1013 NOSIG
Loading
Personal Weather Stations






























Interactive Weather Map
Tropical Storm Tracking
New forecast layout! Learn more

10-Day Weather Forecast

Advertisements
Track Severe Weather on mobile